Donnelly, ID (83615)

12:58 AM MST on February 10, 2016 (GMT -0700)
Railroad Village | | Change Station
CLOSE
Current Station
Personal Weather Station
Location: Donnelly, ID
Elevation: 4872 ft
Nearby Weather Stations
Active Advisory: Dense Fog Advisory

Elev 4872 ft 44.70 °N, 116.08 °W | Updated 3 seconds ago

Fog
Fog
12.4 °F
Feels Like 12 °F
N
0.0
Wind Variable Wind from North
Gusts 0.0 mph

Today
High -- | Low -- °F
--% Chance of Precip.
Yesterday
High -- | Low -- °F
Precip. -- in
Pressure 30.48 in
Visibility 0.2 miles
Clouds
Windchill 12 °F
Dew Point -8 °F
Humidity 38%
Rainfall 0.00 in
Snow Depth Not available.
7:52 AM 6:05 PM
Waxing Crescent, 4% visible
METAR KMYL 100751Z AUTO 00000KT 1/4SM FZFG VV001 M07/M08 A3035 RMK AO2 SLP322 T10671083
Pressure 30.48 in
Visibility 0.2 miles
Clouds
Windchill 12 °F
Dew Point -8 °F
Humidity 38%
Rainfall 0.00 in
Snow Depth Not available.
7:52 AM 6:05 PM
Waxing Crescent, 4% visible
METAR KMYL 100751Z AUTO 00000KT 1/4SM FZFG VV001 M07/M08 A3035 RMK AO2 SLP322 T10671083

10-Day Weather Forecast

Almanac

Astronomy

Feb. 10, 2016 Rise Set
Actual Time
Civil Twilight
Nautical Twilight
Astronomical Twilight
Moon
Length of Visible Light
Length of Day
Tomorrow will be .
, % of the Moon is Illuminated

Today's Extremes

State Highs State Lows

Community

WunderPhotos

Upload Photos

1,891,826 photos uploaded!

WunderBlog® & News

Nearby

Air Quality

  Air Quality AQ Index Pollutant
Not available.

Snow Depth

Station Depth Elevation

Earthquake Activity

City Distance Mag. Time & Date
Minimum magnitude displayed is 2.5.

Coastal Water Temperatures

Place Temperature

Stations

Nearby Weather Stations

Station Location Temp. Windchill Dew Point Humidity Wind Precip. Elev Updated Type
                   

Watches & Warnings

Dense Fog Advisory
Issued: 11:25 PM PST Feb. 9, 2016 – National Weather Service

... Dense fog advisory in effect until 1 PM MST /noon PST/ this
afternoon...

The National Weather Service in Boise has issued a dense fog
advisory... which is in effect until 1 PM MST /noon PST/ this
afternoon.

* Visibility... less than one quarter mile.

* Timing... through 1 PM MST/ noon PST/. Patchy fog will continue
through the afternoon.

* Impacts... travel hazard.

Precautionary/preparedness actions...

A dense fog advisory means visibilities will frequently be
reduced to less than one quarter mile. If driving... slow down...
use your headlights... and leave plenty of distance ahead of you.